sensor_id;sensor_type;location;lat;lon;timestamp;P1;durP1;ratioP1;P2;durP2;ratioP2
29662;SDS011;16578;53.266;7.920;2023-12-20T00:02:25;7.53;;;1.70;;
29662;SDS011;16578;53.266;7.920;2023-12-20T00:04:50;3.88;;;1.70;;
29662;SDS011;16578;53.266;7.920;2023-12-20T00:07:16;8.75;;;2.05;;
29662;SDS011;16578;53.266;7.920;2023-12-20T00:09:42;5.80;;;2.10;;
29662;SDS011;16578;53.266;7.920;2023-12-20T00:12:07;9.25;;;2.70;;
29662;SDS011;16578;53.266;7.920;2023-12-20T00:14:33;4.85;;;1.55;;
29662;SDS011;16578;53.266;7.920;2023-12-20T00:16:58;10.02;;;2.40;;
29662;SDS011;16578;53.266;7.920;2023-12-20T00:19:24;8.40;;;2.22;;
29662;SDS011;16578;53.266;7.920;2023-12-20T00:21:49;7.20;;;1.40;;
29662;SDS011;16578;53.266;7.920;2023-12-20T00:24:15;3.10;;;1.33;;
29662;SDS011;16578;53.266;7.920;2023-12-20T00:26:41;6.57;;;1.85;;
29662;SDS011;16578;53.266;7.920;2023-12-20T00:29:07;8.10;;;2.00;;
29662;SDS011;16578;53.266;7.920;2023-12-20T00:31:33;6.53;;;1.75;;
29662;SDS011;16578;53.266;7.920;2023-12-20T00:33:58;8.27;;;2.00;;
29662;SDS011;16578;53.266;7.920;2023-12-20T00:36:24;10.82;;;1.90;;
29662;SDS011;16578;53.266;7.920;2023-12-20T00:38:49;9.10;;;2.15;;
29662;SDS011;16578;53.266;7.920;2023-12-20T00:41:16;13.18;;;2.55;;
29662;SDS011;16578;53.266;7.920;2023-12-20T00:43:42;5.53;;;1.73;;
29662;SDS011;16578;53.266;7.920;2023-12-20T00:46:07;9.63;;;1.77;;
29662;SDS011;16578;53.266;7.920;2023-12-20T00:48:33;6.00;;;1.95;;
29662;SDS011;16578;53.266;7.920;2023-12-20T00:50:58;7.20;;;2.55;;
29662;SDS011;16578;53.266;7.920;2023-12-20T00:53:24;8.52;;;1.83;;
29662;SDS011;16578;53.266;7.920;2023-12-20T00:55:49;8.65;;;1.67;;
29662;SDS011;16578;53.266;7.920;2023-12-20T00:58:15;8.00;;;1.80;;
29662;SDS011;16578;53.266;7.920;2023-12-20T01:00:41;6.95;;;1.73;;
29662;SDS011;16578;53.266;7.920;2023-12-20T01:03:09;5.93;;;1.80;;
29662;SDS011;16578;53.266;7.920;2023-12-20T01:05:34;9.50;;;2.13;;
29662;SDS011;16578;53.266;7.920;2023-12-20T01:08:00;5.03;;;1.55;;
29662;SDS011;16578;53.266;7.920;2023-12-20T01:10:28;6.68;;;1.58;;
29662;SDS011;16578;53.266;7.920;2023-12-20T01:12:54;11.07;;;2.13;;
29662;SDS011;16578;53.266;7.920;2023-12-20T01:15:20;6.28;;;1.58;;
29662;SDS011;16578;53.266;7.920;2023-12-20T01:17:45;5.68;;;1.45;;
29662;SDS011;16578;53.266;7.920;2023-12-20T01:20:11;8.93;;;1.30;;
29662;SDS011;16578;53.266;7.920;2023-12-20T01:22:37;6.47;;;2.05;;
29662;SDS011;16578;53.266;7.920;2023-12-20T01:25:02;9.25;;;1.75;;
29662;SDS011;16578;53.266;7.920;2023-12-20T01:27:28;9.50;;;1.92;;
29662;SDS011;16578;53.266;7.920;2023-12-20T01:29:54;7.80;;;2.10;;
29662;SDS011;16578;53.266;7.920;2023-12-20T01:32:19;6.88;;;1.98;;
29662;SDS011;16578;53.266;7.920;2023-12-20T01:34:45;5.82;;;1.58;;
29662;SDS011;16578;53.266;7.920;2023-12-20T01:37:11;7.32;;;2.05;;
29662;SDS011;16578;53.266;7.920;2023-12-20T01:39:36;9.18;;;1.58;;
29662;SDS011;16578;53.266;7.920;2023-12-20T01:42:02;8.45;;;1.60;;
29662;SDS011;16578;53.266;7.920;2023-12-20T01:44:27;9.77;;;1.70;;
29662;SDS011;16578;53.266;7.920;2023-12-20T01:46:53;7.22;;;1.75;;
29662;SDS011;16578;53.266;7.920;2023-12-20T01:49:19;7.13;;;1.70;;
29662;SDS011;16578;53.266;7.920;2023-12-20T01:51:46;4.85;;;1.50;;
29662;SDS011;16578;53.266;7.920;2023-12-20T01:54:11;9.82;;;2.10;;
29662;SDS011;16578;53.266;7.920;2023-12-20T01:56:38;7.25;;;1.80;;
29662;SDS011;16578;53.266;7.920;2023-12-20T01:59:04;6.22;;;2.17;;
29662;SDS011;16578;53.266;7.920;2023-12-20T02:01:32;7.13;;;1.20;;
29662;SDS011;16578;53.266;7.920;2023-12-20T02:03:58;10.55;;;3.25;;
29662;SDS011;16578;53.266;7.920;2023-12-20T02:06:25;5.18;;;1.67;;
29662;SDS011;16578;53.266;7.920;2023-12-20T02:08:57;6.50;;;2.25;;
29662;SDS011;16578;53.266;7.920;2023-12-20T02:11:23;7.25;;;2.22;;
29662;SDS011;16578;53.266;7.920;2023-12-20T02:13:51;10.52;;;2.22;;
29662;SDS011;16578;53.266;7.920;2023-12-20T02:16:17;6.97;;;1.67;;
29662;SDS011;16578;53.266;7.920;2023-12-20T02:18:43;9.65;;;1.88;;
29662;SDS011;16578;53.266;7.920;2023-12-20T02:21:09;8.85;;;2.03;;
29662;SDS011;16578;53.266;7.920;2023-12-20T02:23:35;8.23;;;1.70;;
29662;SDS011;16578;53.266;7.920;2023-12-20T02:26:01;7.97;;;1.98;;
29662;SDS011;16578;53.266;7.920;2023-12-20T02:28:27;9.48;;;2.20;;
29662;SDS011;16578;53.266;7.920;2023-12-20T02:30:54;9.13;;;1.80;;
29662;SDS011;16578;53.266;7.920;2023-12-20T02:33:19;7.57;;;1.77;;
29662;SDS011;16578;53.266;7.920;2023-12-20T02:35:45;10.55;;;2.15;;
29662;SDS011;16578;53.266;7.920;2023-12-20T02:38:10;9.23;;;1.65;;
29662;SDS011;16578;53.266;7.920;2023-12-20T02:40:36;9.18;;;2.00;;
29662;SDS011;16578;53.266;7.920;2023-12-20T02:43:02;10.45;;;2.05;;
29662;SDS011;16578;53.266;7.920;2023-12-20T02:45:27;10.98;;;2.03;;
29662;SDS011;16578;53.266;7.920;2023-12-20T02:47:53;9.25;;;1.85;;
29662;SDS011;16578;53.266;7.920;2023-12-20T02:50:18;6.72;;;1.67;;
29662;SDS011;16578;53.266;7.920;2023-12-20T02:52:44;6.88;;;1.98;;
29662;SDS011;16578;53.266;7.920;2023-12-20T02:55:10;5.10;;;1.60;;
29662;SDS011;16578;53.266;7.920;2023-12-20T02:57:36;7.47;;;2.17;;
29662;SDS011;16578;53.266;7.920;2023-12-20T03:00:06;9.68;;;2.58;;
29662;SDS011;16578;53.266;7.920;2023-12-20T03:02:35;12.30;;;2.20;;
29662;SDS011;16578;53.266;7.920;2023-12-20T03:05:02;12.43;;;2.20;;
29662;SDS011;16578;53.266;7.920;2023-12-20T03:07:27;8.15;;;1.98;;
29662;SDS011;16578;53.266;7.920;2023-12-20T03:09:53;7.32;;;2.30;;
29662;SDS011;16578;53.266;7.920;2023-12-20T03:12:18;7.50;;;2.42;;
29662;SDS011;16578;53.266;7.920;2023-12-20T03:14:44;7.53;;;1.88;;
29662;SDS011;16578;53.266;7.920;2023-12-20T03:17:10;10.10;;;2.15;;
29662;SDS011;16578;53.266;7.920;2023-12-20T03:19:35;5.35;;;1.60;;
29662;SDS011;16578;53.266;7.920;2023-12-20T03:22:01;8.13;;;1.70;;
29662;SDS011;16578;53.266;7.920;2023-12-20T03:24:27;9.88;;;2.40;;
29662;SDS011;16578;53.266;7.920;2023-12-20T03:26:52;11.30;;;2.25;;
29662;SDS011;16578;53.266;7.920;2023-12-20T03:29:18;11.65;;;2.70;;
29662;SDS011;16578;53.266;7.920;2023-12-20T03:31:44;11.75;;;2.55;;
29662;SDS011;16578;53.266;7.920;2023-12-20T03:34:10;8.68;;;2.15;;
29662;SDS011;16578;53.266;7.920;2023-12-20T03:36:36;7.53;;;1.67;;
29662;SDS011;16578;53.266;7.920;2023-12-20T03:39:01;9.50;;;2.90;;
29662;SDS011;16578;53.266;7.920;2023-12-20T03:41:27;11.20;;;2.42;;
29662;SDS011;16578;53.266;7.920;2023-12-20T03:43:53;10.25;;;2.35;;
29662;SDS011;16578;53.266;7.920;2023-12-20T03:46:19;6.93;;;1.80;;
29662;SDS011;16578;53.266;7.920;2023-12-20T03:48:44;8.15;;;1.75;;
29662;SDS011;16578;53.266;7.920;2023-12-20T03:51:10;17.60;;;2.75;;
29662;SDS011;16578;53.266;7.920;2023-12-20T03:53:36;10.85;;;2.10;;
29662;SDS011;16578;53.266;7.920;2023-12-20T03:56:01;9.32;;;2.05;;
29662;SDS011;16578;53.266;7.920;2023-12-20T03:58:27;10.57;;;2.40;;
29662;SDS011;16578;53.266;7.920;2023-12-20T04:00:52;5.75;;;1.58;;
29662;SDS011;16578;53.266;7.920;2023-12-20T04:03:18;11.30;;;1.95;;
29662;SDS011;16578;53.266;7.920;2023-12-20T04:05:43;11.13;;;2.10;;
29662;SDS011;16578;53.266;7.920;2023-12-20T04:08:09;9.00;;;2.15;;
29662;SDS011;16578;53.266;7.920;2023-12-20T04:10:35;8.70;;;2.17;;
29662;SDS011;16578;53.266;7.920;2023-12-20T04:13:02;10.93;;;1.83;;
29662;SDS011;16578;53.266;7.920;2023-12-20T04:15:28;10.15;;;2.00;;
29662;SDS011;16578;53.266;7.920;2023-12-20T04:17:53;4.78;;;2.20;;
29662;SDS011;16578;53.266;7.920;2023-12-20T04:20:19;10.30;;;2.13;;
29662;SDS011;16578;53.266;7.920;2023-12-20T04:22:44;8.65;;;1.90;;
29662;SDS011;16578;53.266;7.920;2023-12-20T04:25:10;8.68;;;2.10;;
29662;SDS011;16578;53.266;7.920;2023-12-20T04:27:36;13.95;;;3.00;;
29662;SDS011;16578;53.266;7.920;2023-12-20T04:30:02;15.73;;;2.53;;
29662;SDS011;16578;53.266;7.920;2023-12-20T04:32:27;14.05;;;2.65;;
29662;SDS011;16578;53.266;7.920;2023-12-20T04:34:53;9.95;;;2.25;;
29662;SDS011;16578;53.266;7.920;2023-12-20T04:37:18;6.60;;;2.38;;
29662;SDS011;16578;53.266;7.920;2023-12-20T04:39:44;7.60;;;2.33;;
29662;SDS011;16578;53.266;7.920;2023-12-20T04:42:10;11.55;;;2.65;;
29662;SDS011;16578;53.266;7.920;2023-12-20T04:44:35;10.80;;;2.50;;
29662;SDS011;16578;53.266;7.920;2023-12-20T04:47:01;10.80;;;2.20;;
29662;SDS011;16578;53.266;7.920;2023-12-20T04:49:26;12.85;;;2.70;;
29662;SDS011;16578;53.266;7.920;2023-12-20T04:51:52;14.50;;;3.90;;
29662;SDS011;16578;53.266;7.920;2023-12-20T04:56:47;12.60;;;2.53;;
29662;SDS011;16578;53.266;7.920;2023-12-20T04:59:12;20.35;;;3.47;;
29662;SDS011;16578;53.266;7.920;2023-12-20T05:01:38;12.73;;;2.90;;
29662;SDS011;16578;53.266;7.920;2023-12-20T05:04:04;18.05;;;2.80;;
29662;SDS011;16578;53.266;7.920;2023-12-20T05:06:29;13.32;;;2.97;;
29662;SDS011;16578;53.266;7.920;2023-12-20T05:08:55;14.00;;;2.83;;
29662;SDS011;16578;53.266;7.920;2023-12-20T05:11:20;8.80;;;2.50;;
29662;SDS011;16578;53.266;7.920;2023-12-20T05:13:46;11.05;;;2.97;;
29662;SDS011;16578;53.266;7.920;2023-12-20T05:16:12;8.85;;;2.00;;
29662;SDS011;16578;53.266;7.920;2023-12-20T05:18:39;11.07;;;2.80;;
29662;SDS011;16578;53.266;7.920;2023-12-20T05:21:04;12.80;;;3.20;;
29662;SDS011;16578;53.266;7.920;2023-12-20T05:23:30;12.73;;;2.80;;
29662;SDS011;16578;53.266;7.920;2023-12-20T05:25:55;14.85;;;2.75;;
29662;SDS011;16578;53.266;7.920;2023-12-20T05:28:21;9.77;;;3.00;;
29662;SDS011;16578;53.266;7.920;2023-12-20T05:30:47;13.30;;;3.60;;
29662;SDS011;16578;53.266;7.920;2023-12-20T05:33:12;13.55;;;3.55;;
29662;SDS011;16578;53.266;7.920;2023-12-20T05:35:38;12.63;;;2.90;;
29662;SDS011;16578;53.266;7.920;2023-12-20T05:38:03;9.38;;;3.35;;
29662;SDS011;16578;53.266;7.920;2023-12-20T05:40:29;22.15;;;4.30;;
29662;SDS011;16578;53.266;7.920;2023-12-20T05:42:54;14.32;;;2.92;;
29662;SDS011;16578;53.266;7.920;2023-12-20T05:45:20;14.73;;;2.80;;
29662;SDS011;16578;53.266;7.920;2023-12-20T05:47:45;17.40;;;3.42;;
29662;SDS011;16578;53.266;7.920;2023-12-20T05:50:11;16.95;;;2.75;;
29662;SDS011;16578;53.266;7.920;2023-12-20T05:52:37;14.50;;;3.15;;
29662;SDS011;16578;53.266;7.920;2023-12-20T05:55:02;12.27;;;3.42;;
29662;SDS011;16578;53.266;7.920;2023-12-20T05:57:28;14.57;;;3.90;;
29662;SDS011;16578;53.266;7.920;2023-12-20T05:59:54;12.38;;;3.67;;
29662;SDS011;16578;53.266;7.920;2023-12-20T06:02:19;26.17;;;4.57;;
29662;SDS011;16578;53.266;7.920;2023-12-20T06:04:45;16.08;;;2.70;;
29662;SDS011;16578;53.266;7.920;2023-12-20T06:07:11;13.68;;;3.88;;
29662;SDS011;16578;53.266;7.920;2023-12-20T06:09:37;17.65;;;3.97;;
29662;SDS011;16578;53.266;7.920;2023-12-20T06:12:03;18.13;;;3.47;;
29662;SDS011;16578;53.266;7.920;2023-12-20T06:14:29;14.95;;;3.00;;
29662;SDS011;16578;53.266;7.920;2023-12-20T06:16:55;14.27;;;3.78;;
29662;SDS011;16578;53.266;7.920;2023-12-20T06:19:22;22.85;;;4.43;;
29662;SDS011;16578;53.266;7.920;2023-12-20T06:21:47;18.58;;;3.72;;
29662;SDS011;16578;53.266;7.920;2023-12-20T06:24:13;21.00;;;3.63;;
29662;SDS011;16578;53.266;7.920;2023-12-20T06:26:38;16.48;;;3.83;;
29662;SDS011;16578;53.266;7.920;2023-12-20T06:29:04;12.20;;;3.47;;
29662;SDS011;16578;53.266;7.920;2023-12-20T06:31:30;16.40;;;3.40;;
29662;SDS011;16578;53.266;7.920;2023-12-20T06:33:57;23.88;;;3.97;;
29662;SDS011;16578;53.266;7.920;2023-12-20T06:36:24;11.88;;;2.90;;
29662;SDS011;16578;53.266;7.920;2023-12-20T06:38:50;16.20;;;3.35;;
29662;SDS011;16578;53.266;7.920;2023-12-20T06:41:16;14.05;;;3.40;;
29662;SDS011;16578;53.266;7.920;2023-12-20T06:43:42;13.15;;;3.50;;
29662;SDS011;16578;53.266;7.920;2023-12-20T06:46:07;14.73;;;3.97;;
29662;SDS011;16578;53.266;7.920;2023-12-20T06:48:34;21.52;;;4.93;;
29662;SDS011;16578;53.266;7.920;2023-12-20T06:51:00;17.52;;;4.10;;
29662;SDS011;16578;53.266;7.920;2023-12-20T06:53:29;16.02;;;4.00;;
29662;SDS011;16578;53.266;7.920;2023-12-20T06:55:54;10.32;;;3.00;;
29662;SDS011;16578;53.266;7.920;2023-12-20T06:58:21;14.50;;;3.42;;
29662;SDS011;16578;53.266;7.920;2023-12-20T07:00:47;14.07;;;3.40;;
29662;SDS011;16578;53.266;7.920;2023-12-20T07:03:13;18.15;;;4.43;;
29662;SDS011;16578;53.266;7.920;2023-12-20T07:05:38;12.85;;;3.05;;
29662;SDS011;16578;53.266;7.920;2023-12-20T07:08:04;22.40;;;4.55;;
29662;SDS011;16578;53.266;7.920;2023-12-20T07:10:30;21.10;;;4.25;;
29662;SDS011;16578;53.266;7.920;2023-12-20T07:12:55;18.83;;;4.30;;
29662;SDS011;16578;53.266;7.920;2023-12-20T07:15:21;17.42;;;3.70;;
29662;SDS011;16578;53.266;7.920;2023-12-20T07:17:47;21.20;;;4.45;;
29662;SDS011;16578;53.266;7.920;2023-12-20T07:20:13;19.33;;;3.83;;
29662;SDS011;16578;53.266;7.920;2023-12-20T07:22:38;16.60;;;3.65;;
29662;SDS011;16578;53.266;7.920;2023-12-20T07:25:04;11.48;;;3.10;;
29662;SDS011;16578;53.266;7.920;2023-12-20T07:27:30;14.57;;;3.85;;
29662;SDS011;16578;53.266;7.920;2023-12-20T07:29:56;18.65;;;3.60;;
29662;SDS011;16578;53.266;7.920;2023-12-20T07:32:21;18.77;;;3.75;;
29662;SDS011;16578;53.266;7.920;2023-12-20T07:34:47;14.75;;;3.35;;
29662;SDS011;16578;53.266;7.920;2023-12-20T07:37:12;12.85;;;3.75;;
29662;SDS011;16578;53.266;7.920;2023-12-20T07:39:41;14.90;;;3.05;;
29662;SDS011;16578;53.266;7.920;2023-12-20T07:42:07;16.23;;;3.90;;
29662;SDS011;16578;53.266;7.920;2023-12-20T07:44:34;15.13;;;3.25;;
29662;SDS011;16578;53.266;7.920;2023-12-20T07:47:00;13.13;;;3.28;;
29662;SDS011;16578;53.266;7.920;2023-12-20T07:49:26;12.07;;;4.03;;
29662;SDS011;16578;53.266;7.920;2023-12-20T07:51:52;13.48;;;3.63;;
29662;SDS011;16578;53.266;7.920;2023-12-20T07:54:18;15.70;;;4.15;;
29662;SDS011;16578;53.266;7.920;2023-12-20T07:56:43;17.42;;;4.28;;
29662;SDS011;16578;53.266;7.920;2023-12-20T07:59:09;12.70;;;3.85;;
29662;SDS011;16578;53.266;7.920;2023-12-20T08:01:34;22.13;;;4.50;;
29662;SDS011;16578;53.266;7.920;2023-12-20T08:04:00;16.95;;;4.47;;
29662;SDS011;16578;53.266;7.920;2023-12-20T08:06:25;23.45;;;4.45;;
29662;SDS011;16578;53.266;7.920;2023-12-20T08:08:51;18.52;;;3.85;;
29662;SDS011;16578;53.266;7.920;2023-12-20T08:11:16;13.05;;;3.10;;
29662;SDS011;16578;53.266;7.920;2023-12-20T08:13:42;14.73;;;3.22;;
29662;SDS011;16578;53.266;7.920;2023-12-20T08:16:08;16.00;;;3.42;;
29662;SDS011;16578;53.266;7.920;2023-12-20T08:18:34;14.82;;;3.35;;
29662;SDS011;16578;53.266;7.920;2023-12-20T08:20:59;20.10;;;3.38;;
29662;SDS011;16578;53.266;7.920;2023-12-20T08:23:26;18.58;;;3.30;;
29662;SDS011;16578;53.266;7.920;2023-12-20T08:25:51;12.70;;;3.50;;
29662;SDS011;16578;53.266;7.920;2023-12-20T08:28:17;13.85;;;3.13;;
29662;SDS011;16578;53.266;7.920;2023-12-20T08:30:43;12.65;;;3.78;;
29662;SDS011;16578;53.266;7.920;2023-12-20T08:33:08;13.70;;;3.03;;
29662;SDS011;16578;53.266;7.920;2023-12-20T08:35:37;17.83;;;3.00;;
29662;SDS011;16578;53.266;7.920;2023-12-20T08:38:06;12.20;;;3.38;;
29662;SDS011;16578;53.266;7.920;2023-12-20T08:40:31;12.68;;;2.92;;
29662;SDS011;16578;53.266;7.920;2023-12-20T08:42:57;16.35;;;3.63;;
29662;SDS011;16578;53.266;7.920;2023-12-20T08:45:23;9.30;;;3.33;;
29662;SDS011;16578;53.266;7.920;2023-12-20T08:47:49;14.02;;;4.00;;
29662;SDS011;16578;53.266;7.920;2023-12-20T08:50:15;12.77;;;2.95;;
29662;SDS011;16578;53.266;7.920;2023-12-20T08:52:40;20.33;;;3.78;;
29662;SDS011;16578;53.266;7.920;2023-12-20T08:55:07;14.15;;;3.28;;
29662;SDS011;16578;53.266;7.920;2023-12-20T08:57:33;11.52;;;2.63;;
29662;SDS011;16578;53.266;7.920;2023-12-20T08:59:58;10.57;;;2.00;;
29662;SDS011;16578;53.266;7.920;2023-12-20T09:02:24;7.88;;;1.60;;
29662;SDS011;16578;53.266;7.920;2023-12-20T09:04:50;8.75;;;1.65;;
29662;SDS011;16578;53.266;7.920;2023-12-20T09:09:48;5.32;;;1.10;;
29662;SDS011;16578;53.266;7.920;2023-12-20T09:12:13;5.10;;;1.20;;
29662;SDS011;16578;53.266;7.920;2023-12-20T09:14:39;3.53;;;1.17;;
29662;SDS011;16578;53.266;7.920;2023-12-20T09:17:04;3.50;;;1.08;;
29662;SDS011;16578;53.266;7.920;2023-12-20T09:19:33;8.50;;;1.98;;
29662;SDS011;16578;53.266;7.920;2023-12-20T09:21:58;5.35;;;1.85;;
29662;SDS011;16578;53.266;7.920;2023-12-20T09:24:24;8.77;;;2.10;;
29662;SDS011;16578;53.266;7.920;2023-12-20T09:26:49;7.82;;;1.50;;
29662;SDS011;16578;53.266;7.920;2023-12-20T09:29:15;6.22;;;1.00;;
29662;SDS011;16578;53.266;7.920;2023-12-20T09:31:41;3.33;;;1.20;;
29662;SDS011;16578;53.266;7.920;2023-12-20T09:34:08;7.13;;;0.90;;
29662;SDS011;16578;53.266;7.920;2023-12-20T09:36:34;5.25;;;1.23;;
29662;SDS011;16578;53.266;7.920;2023-12-20T09:39:01;7.20;;;1.50;;
29662;SDS011;16578;53.266;7.920;2023-12-20T09:41:27;3.75;;;1.58;;
29662;SDS011;16578;53.266;7.920;2023-12-20T09:43:56;7.32;;;1.73;;
29662;SDS011;16578;53.266;7.920;2023-12-20T09:46:27;6.15;;;1.40;;
29662;SDS011;16578;53.266;7.920;2023-12-20T09:48:56;4.60;;;1.30;;
29662;SDS011;16578;53.266;7.920;2023-12-20T09:51:25;6.22;;;1.52;;
29662;SDS011;16578;53.266;7.920;2023-12-20T09:53:52;9.30;;;2.17;;
29662;SDS011;16578;53.266;7.920;2023-12-20T09:56:20;3.58;;;1.35;;
29662;SDS011;16578;53.266;7.920;2023-12-20T09:58:47;6.53;;;1.58;;
29662;SDS011;16578;53.266;7.920;2023-12-20T10:01:12;9.43;;;1.75;;
29662;SDS011;16578;53.266;7.920;2023-12-20T10:03:40;3.85;;;1.20;;
29662;SDS011;16578;53.266;7.920;2023-12-20T10:06:06;7.43;;;1.48;;
29662;SDS011;16578;53.266;7.920;2023-12-20T10:08:32;4.88;;;1.38;;
29662;SDS011;16578;53.266;7.920;2023-12-20T10:10:57;4.43;;;1.23;;
29662;SDS011;16578;53.266;7.920;2023-12-20T10:13:27;5.80;;;1.77;;
29662;SDS011;16578;53.266;7.920;2023-12-20T10:15:54;4.97;;;1.25;;
29662;SDS011;16578;53.266;7.920;2023-12-20T10:18:20;6.30;;;1.48;;
29662;SDS011;16578;53.266;7.920;2023-12-20T10:20:46;4.93;;;1.38;;
29662;SDS011;16578;53.266;7.920;2023-12-20T10:23:12;6.32;;;1.17;;
29662;SDS011;16578;53.266;7.920;2023-12-20T10:25:39;5.85;;;1.05;;
29662;SDS011;16578;53.266;7.920;2023-12-20T10:28:13;4.05;;;1.10;;
29662;SDS011;16578;53.266;7.920;2023-12-20T10:30:42;4.18;;;1.23;;
29662;SDS011;16578;53.266;7.920;2023-12-20T10:33:08;4.40;;;1.15;;
29662;SDS011;16578;53.266;7.920;2023-12-20T10:35:34;7.60;;;2.25;;
29662;SDS011;16578;53.266;7.920;2023-12-20T10:38:02;5.07;;;1.40;;
29662;SDS011;16578;53.266;7.920;2023-12-20T10:40:29;4.78;;;1.00;;
29662;SDS011;16578;53.266;7.920;2023-12-20T10:42:56;7.10;;;1.45;;
29662;SDS011;16578;53.266;7.920;2023-12-20T10:45:23;5.38;;;1.77;;
29662;SDS011;16578;53.266;7.920;2023-12-20T10:47:49;5.97;;;1.30;;
29662;SDS011;16578;53.266;7.920;2023-12-20T10:50:15;3.72;;;1.35;;
29662;SDS011;16578;53.266;7.920;2023-12-20T10:52:42;3.58;;;1.23;;
29662;SDS011;16578;53.266;7.920;2023-12-20T10:55:09;5.18;;;1.25;;
29662;SDS011;16578;53.266;7.920;2023-12-20T10:57:36;4.63;;;1.45;;
29662;SDS011;16578;53.266;7.920;2023-12-20T11:00:02;4.50;;;1.58;;
29662;SDS011;16578;53.266;7.920;2023-12-20T11:02:33;5.95;;;1.42;;
29662;SDS011;16578;53.266;7.920;2023-12-20T11:08:23;15.55;;;1.63;;
29662;SDS011;16578;53.266;7.920;2023-12-20T11:10:58;4.75;;;1.20;;
29662;SDS011;16578;53.266;7.920;2023-12-20T11:13:32;8.27;;;1.58;;
29662;SDS011;16578;53.266;7.920;2023-12-20T11:16:02;5.35;;;1.10;;
29662;SDS011;16578;53.266;7.920;2023-12-20T11:18:31;10.07;;;1.75;;
29662;SDS011;16578;53.266;7.920;2023-12-20T11:21:00;7.43;;;1.33;;
29662;SDS011;16578;53.266;7.920;2023-12-20T11:23:30;8.82;;;1.70;;
29662;SDS011;16578;53.266;7.920;2023-12-20T11:25:59;6.70;;;1.63;;
29662;SDS011;16578;53.266;7.920;2023-12-20T11:28:26;14.13;;;2.60;;
29662;SDS011;16578;53.266;7.920;2023-12-20T11:33:25;10.95;;;2.28;;
29662;SDS011;16578;53.266;7.920;2023-12-20T11:35:57;7.80;;;1.70;;
29662;SDS011;16578;53.266;7.920;2023-12-20T11:38:25;11.27;;;2.40;;
29662;SDS011;16578;53.266;7.920;2023-12-20T11:40:50;12.43;;;2.28;;
29662;SDS011;16578;53.266;7.920;2023-12-20T11:43:31;20.75;;;3.88;;
29662;SDS011;16578;53.266;7.920;2023-12-20T11:46:06;12.32;;;3.40;;
29662;SDS011;16578;53.266;7.920;2023-12-20T11:48:37;11.38;;;3.03;;
29662;SDS011;16578;53.266;7.920;2023-12-20T11:51:11;11.73;;;2.70;;
29662;SDS011;16578;53.266;7.920;2023-12-20T11:53:37;23.20;;;3.65;;
29662;SDS011;16578;53.266;7.920;2023-12-20T11:56:04;15.13;;;2.90;;
29662;SDS011;16578;53.266;7.920;2023-12-20T11:58:31;16.70;;;3.40;;
29662;SDS011;16578;53.266;7.920;2023-12-20T12:00:57;18.33;;;3.95;;
29662;SDS011;16578;53.266;7.920;2023-12-20T12:03:23;14.55;;;2.85;;
29662;SDS011;16578;53.266;7.920;2023-12-20T12:05:51;12.55;;;3.10;;
29662;SDS011;16578;53.266;7.920;2023-12-20T12:08:17;15.50;;;3.40;;
29662;SDS011;16578;53.266;7.920;2023-12-20T12:10:46;19.15;;;4.60;;
29662;SDS011;16578;53.266;7.920;2023-12-20T12:13:11;12.38;;;2.92;;
29662;SDS011;16578;53.266;7.920;2023-12-20T12:15:39;9.95;;;3.10;;
29662;SDS011;16578;53.266;7.920;2023-12-20T12:18:07;11.23;;;2.70;;
29662;SDS011;16578;53.266;7.920;2023-12-20T12:20:33;8.15;;;2.65;;
29662;SDS011;16578;53.266;7.920;2023-12-20T12:23:02;13.57;;;3.63;;
29662;SDS011;16578;53.266;7.920;2023-12-20T12:25:30;9.88;;;2.25;;
29662;SDS011;16578;53.266;7.920;2023-12-20T12:27:56;9.07;;;2.45;;
29662;SDS011;16578;53.266;7.920;2023-12-20T12:30:23;8.60;;;2.20;;
29662;SDS011;16578;53.266;7.920;2023-12-20T12:32:48;12.27;;;2.28;;
29662;SDS011;16578;53.266;7.920;2023-12-20T12:35:16;14.43;;;3.00;;
29662;SDS011;16578;53.266;7.920;2023-12-20T12:37:42;13.50;;;3.60;;
29662;SDS011;16578;53.266;7.920;2023-12-20T12:40:15;11.10;;;2.42;;
29662;SDS011;16578;53.266;7.920;2023-12-20T12:42:42;14.00;;;3.28;;
29662;SDS011;16578;53.266;7.920;2023-12-20T12:45:09;13.57;;;3.37;;
29662;SDS011;16578;53.266;7.920;2023-12-20T12:50:04;9.20;;;2.67;;
29662;SDS011;16578;53.266;7.920;2023-12-20T12:52:30;13.75;;;3.00;;
29662;SDS011;16578;53.266;7.920;2023-12-20T12:54:56;10.10;;;2.95;;
29662;SDS011;16578;53.266;7.920;2023-12-20T12:57:22;11.85;;;3.08;;
29662;SDS011;16578;53.266;7.920;2023-12-20T12:59:48;13.48;;;3.25;;
29662;SDS011;16578;53.266;7.920;2023-12-20T13:02:14;13.77;;;3.30;;
29662;SDS011;16578;53.266;7.920;2023-12-20T13:04:40;12.98;;;2.30;;
29662;SDS011;16578;53.266;7.920;2023-12-20T13:07:07;10.07;;;2.40;;
29662;SDS011;16578;53.266;7.920;2023-12-20T13:09:35;17.67;;;3.10;;
29662;SDS011;16578;53.266;7.920;2023-12-20T13:12:01;11.50;;;2.72;;
29662;SDS011;16578;53.266;7.920;2023-12-20T13:14:29;15.35;;;3.03;;
29662;SDS011;16578;53.266;7.920;2023-12-20T13:16:57;12.68;;;2.47;;
29662;SDS011;16578;53.266;7.920;2023-12-20T13:19:23;11.18;;;2.80;;
29662;SDS011;16578;53.266;7.920;2023-12-20T13:21:49;12.95;;;2.63;;
29662;SDS011;16578;53.266;7.920;2023-12-20T13:24:14;15.80;;;3.38;;
29662;SDS011;16578;53.266;7.920;2023-12-20T13:26:40;16.05;;;3.28;;
29662;SDS011;16578;53.266;7.920;2023-12-20T13:29:06;11.95;;;2.90;;
29662;SDS011;16578;53.266;7.920;2023-12-20T13:31:31;17.63;;;2.97;;
29662;SDS011;16578;53.266;7.920;2023-12-20T13:33:57;14.07;;;2.80;;
29662;SDS011;16578;53.266;7.920;2023-12-20T13:36:22;13.65;;;2.70;;
29662;SDS011;16578;53.266;7.920;2023-12-20T13:38:48;15.60;;;3.13;;
29662;SDS011;16578;53.266;7.920;2023-12-20T13:41:13;10.93;;;3.38;;
29662;SDS011;16578;53.266;7.920;2023-12-20T13:43:39;15.65;;;3.22;;
29662;SDS011;16578;53.266;7.920;2023-12-20T13:46:05;10.48;;;2.78;;
29662;SDS011;16578;53.266;7.920;2023-12-20T13:48:30;9.68;;;3.00;;
29662;SDS011;16578;53.266;7.920;2023-12-20T13:50:56;15.57;;;3.60;;
29662;SDS011;16578;53.266;7.920;2023-12-20T13:53:27;12.38;;;3.05;;
29662;SDS011;16578;53.266;7.920;2023-12-20T13:55:53;17.88;;;3.20;;
29662;SDS011;16578;53.266;7.920;2023-12-20T13:58:19;21.33;;;7.82;;
29662;SDS011;16578;53.266;7.920;2023-12-20T14:00:45;23.75;;;8.88;;
29662;SDS011;16578;53.266;7.920;2023-12-20T14:03:10;20.92;;;8.38;;
29662;SDS011;16578;53.266;7.920;2023-12-20T14:05:36;16.73;;;5.50;;
29662;SDS011;16578;53.266;7.920;2023-12-20T14:08:02;16.65;;;5.93;;
29662;SDS011;16578;53.266;7.920;2023-12-20T14:10:28;17.10;;;5.78;;
29662;SDS011;16578;53.266;7.920;2023-12-20T14:12:54;19.30;;;4.72;;
29662;SDS011;16578;53.266;7.920;2023-12-20T14:15:19;16.00;;;5.03;;
29662;SDS011;16578;53.266;7.920;2023-12-20T14:17:45;11.57;;;4.57;;
29662;SDS011;16578;53.266;7.920;2023-12-20T14:20:11;10.70;;;3.28;;
29662;SDS011;16578;53.266;7.920;2023-12-20T14:22:39;10.52;;;3.70;;
29662;SDS011;16578;53.266;7.920;2023-12-20T14:25:10;14.80;;;4.38;;
29662;SDS011;16578;53.266;7.920;2023-12-20T14:27:37;10.80;;;3.10;;
29662;SDS011;16578;53.266;7.920;2023-12-20T14:30:03;8.93;;;3.03;;
29662;SDS011;16578;53.266;7.920;2023-12-20T14:32:29;12.65;;;3.20;;
29662;SDS011;16578;53.266;7.920;2023-12-20T14:34:54;10.23;;;2.25;;
29662;SDS011;16578;53.266;7.920;2023-12-20T14:37:20;13.68;;;3.00;;
29662;SDS011;16578;53.266;7.920;2023-12-20T14:39:45;8.38;;;2.20;;
29662;SDS011;16578;53.266;7.920;2023-12-20T14:42:11;17.80;;;3.30;;
29662;SDS011;16578;53.266;7.920;2023-12-20T14:44:42;17.00;;;2.83;;
29662;SDS011;16578;53.266;7.920;2023-12-20T14:47:07;12.02;;;2.50;;
29662;SDS011;16578;53.266;7.920;2023-12-20T14:49:33;11.75;;;2.25;;